Harbor Emperor — WCY6430 — position and weather

sailwx.info

Track history (hours):
 
Tides and Currents Weather Stations Pressure Air Temp Water Temp Dewpoint Dewpoint Depression Visibility Wind Speed Wind Dir Waves Ship Positions

Harbor Emperor

Owner: BLUE & GOLD FLEET, SAN FRANCISCO, CA. More information available from US FCC via Universal Licensing System and Coast Guard Vessel Documentation Center.

Last reported at 2015-Jul-01 02:33 UTC. Time now 2015-Jul-01 16:58 UTC.
Position N 37°50' W 122°27'.

Length 31 m.

Type: Passenger vessel. MMSI: 366985270.

Date/timePositionNaut miles runAvg speedWind from/ knotsBaromVisibWave heightAir tempDewpointWater temp
2015-Jul-01 02:33N 37°50' W 122°27'2 2.4
2015-Jul-01 01:33N 37°49' W 122°24'0 0.4
2015-Jul-01 00:34N 37°49' W 122°25'1 1.0
2015-Jun-30 23:33N 37°49' W 122°25'1 1.0
2015-Jun-30 22:33N 37°49' W 122°25'0 0.1
2015-Jun-30 21:34N 37°49' W 122°25'0 0.1
2015-Jun-30 20:34N 37°49' W 122°25'2 2.3
2015-Jun-30 19:34N 37°49' W 122°28'3 2.5
2015-Jun-30 18:33N 37°49' W 122°24'0 0.4
2015-Jun-30 17:33N 37°49' W 122°25'0 0.0
2015-Jun-30 16:29N 37°49' W 122°25'0 0.0
2015-Jun-30 15:29N 37°49' W 122°25'0 0.0
2015-Jun-30 14:32N 37°49' W 122°25'0 0.0
2015-Jun-30 13:32N 37°49' W 122°25'0 0.0
2015-Jun-30 12:32N 37°49' W 122°25'0 0.0
2015-Jun-30 11:32N 37°49' W 122°25'0 0.0
2015-Jun-30 10:32N 37°49' W 122°25'0 0.0
2015-Jun-30 09:29N 37°49' W 122°25'0 0.0
2015-Jun-30 08:32N 37°49' W 122°25'0 0.0
2015-Jun-30 07:29N 37°49' W 122°25'0 0.0
2015-Jun-30 06:32N 37°49' W 122°25'0 0.0
2015-Jun-30 05:32N 37°49' W 122°25'0 0.0
2015-Jun-30 04:29N 37°49' W 122°25'0 0.0
2015-Jun-30 03:29N 37°49' W 122°25'2 1.9
2015-Jun-30 02:33N 37°50' W 122°26'2 1.8
2015-Jun-30 01:34N 37°49' W 122°24'0 0.3
2015-Jun-30 00:33N 37°49' W 122°25'1 1.1
2015-Jun-29 23:33N 37°49' W 122°25'1 1.1
2015-Jun-29 22:33N 37°49' W 122°25'0 0.1
2015-Jun-29 21:33N 37°49' W 122°25'0 0.1
2015-Jun-29 20:33N 37°49' W 122°25'2 2.3
2015-Jun-29 19:33N 37°49' W 122°28'2 2.4
2015-Jun-29 18:33N 37°49' W 122°24'0 0.4
2015-Jun-29 17:33N 37°49' W 122°25'0 0.0
2015-Jun-29 01:27N 37°49' W 122°25'0 0.1
2015-Jun-29 00:33N 37°49' W 122°25'4 3.8
2015-Jun-28 23:33N 37°52' W 122°26'2 1.9
2015-Jun-28 22:33N 37°50' W 122°26'0 0.2
2015-Jun-28 21:33N 37°50' W 122°26'2 2.0
2015-Jun-28 20:33N 37°49' W 122°25'4 4.3
2015-Jun-28 19:34N 37°52' W 122°27'4 4.3
2015-Jun-28 18:33N 37°49' W 122°25'4 3.9
2015-Jun-28 17:33N 37°52' W 122°27'4 3.8
2015-Jun-28 16:34N 37°49' W 122°25'0 0.1
2015-Jun-28 15:33N 37°49' W 122°25'0 0.0
2015-Jun-28 14:33N 37°49' W 122°25'0 0.0
2015-Jun-28 13:33N 37°49' W 122°25'0 0.0
2015-Jun-28 12:33N 37°49' W 122°25'0 0.0
2015-Jun-28 11:33N 37°49' W 122°25'0 0.0
2015-Jun-28 10:33N 37°49' W 122°25'0 0.0
2015-Jun-28 09:33N 37°49' W 122°25'0 0.0
2015-Jun-28 08:33N 37°49' W 122°25'0 0.0
2015-Jun-28 07:33N 37°49' W 122°25'0 0.0
2015-Jun-28 06:33N 37°49' W 122°25'0 0.0
2015-Jun-28 05:33N 37°49' W 122°25'0 0.0
2015-Jun-28 04:33N 37°49' W 122°25'3 2.8
2015-Jun-28 03:33N 37°51' W 122°27'2 1.7
2015-Jun-28 02:33N 37°49' W 122°26'3 2.8
2015-Jun-28 01:34N 37°52' W 122°27'4 4.0
2015-Jun-28 00:33N 37°49' W 122°25'4 3.7
2015-Jun-27 23:33N 37°52' W 122°26'1 1.3
2015-Jun-27 22:34N 37°51' W 122°27'1 0.9
2015-Jun-27 21:33N 37°50' W 122°26'2 2.0
2015-Jun-27 20:33N 37°49' W 122°25'4 3.9
2015-Jun-27 19:33N 37°52' W 122°27'4 4.4
2015-Jun-27 18:33N 37°48' W 122°24'4 4.2
2015-Jun-27 17:34N 37°52' W 122°26'4 3.8
2015-Jun-27 16:34N 37°49' W 122°25'0 0.1
2015-Jun-27 15:33N 37°49' W 122°25'0 0.0
2015-Jun-27 14:34N 37°49' W 122°25'0 0.0
2015-Jun-27 13:34N 37°49' W 122°25'0 0.0
2015-Jun-27 12:34N 37°49' W 122°25'0 0.0
2015-Jun-27 11:33N 37°49' W 122°25'0 0.0
2015-Jun-27 10:34N 37°49' W 122°25'0 0.0
2015-Jun-27 09:33N 37°49' W 122°25'0 0.0
2015-Jun-27 08:33N 37°49' W 122°25'0 0.0
2015-Jun-27 07:34N 37°49' W 122°25'0 0.0
2015-Jun-27 06:33N 37°49' W 122°25'0 0.0
2015-Jun-27 05:34N 37°49' W 122°25'0 0.0
2015-Jun-27 04:33N 37°49' W 122°25'0 0.0
2015-Jun-27 03:33N 37°49' W 122°25'3 2.9
2015-Jun-27 02:33N 37°49' W 122°28'3 3.0
2015-Jun-27 01:33N 37°49' W 122°24'1 0.7
2015-Jun-27 00:33N 37°49' W 122°25'1 1.0
2015-Jun-26 23:33N 37°49' W 122°25'1 1.0
2015-Jun-26 22:33N 37°49' W 122°25'0 0.1
2015-Jun-26 21:34N 37°49' W 122°25'0 0.1
2015-Jun-26 20:33N 37°49' W 122°25'2 2.5
2015-Jun-26 19:33N 37°49' W 122°28'2 2.3
2015-Jun-26 18:33N 37°49' W 122°25'1 0.8
2015-Jun-26 17:28N 37°49' W 122°25'0 0.0
2015-Jun-26 16:33N 37°49' W 122°25'0 0.0
2015-Jun-26 15:33N 37°49' W 122°25'0 0.0
2015-Jun-26 14:33N 37°49' W 122°25'0 0.0
2015-Jun-26 13:15N 37°49' W 122°25'0 0.0
2015-Jun-26 12:30N 37°49' W 122°25'0 0.0
2015-Jun-26 11:33N 37°49' W 122°25'0 0.0
2015-Jun-26 10:33N 37°49' W 122°25'0 0.0
2015-Jun-26 09:33N 37°49' W 122°25'0 0.0
2015-Jun-26 08:33N 37°49' W 122°25'0 0.0
2015-Jun-26 07:33N 37°49' W 122°25'0 0.0
2015-Jun-26 06:33N 37°49' W 122°25'0 0.0
2015-Jun-26 05:33N 37°49' W 122°25'0 0.0
2015-Jun-26 04:33N 37°49' W 122°25'0 0.0
2015-Jun-26 03:33N 37°49' W 122°25'2 2.1
2015-Jun-26 02:34N 37°50' W 122°27'2 2.1
2015-Jun-26 01:33N 37°49' W 122°24'0 0.4
2015-Jun-26 00:33N 37°49' W 122°25'1 1.3
2015-Jun-25 23:33N 37°50' W 122°26'1 1.3
2015-Jun-25 22:33N 37°49' W 122°25'0 0.0
2015-Jun-25 21:33N 37°49' W 122°25'0 0.0
2015-Jun-25 20:33N 37°49' W 122°25'3 2.6
2015-Jun-25 19:33N 37°49' W 122°28'3 2.6
2015-Jun-25 18:33N 37°49' W 122°25'0 0.5
2015-Jun-25 17:33N 37°49' W 122°25'0 0.0
2015-Jun-25 16:33N 37°49' W 122°25'0 0.0
2015-Jun-25 15:24N 37°49' W 122°25'0 0.0
2015-Jun-25 14:33N 37°49' W 122°25'0 0.0
2015-Jun-25 13:33N 37°49' W 122°25'0 0.0
2015-Jun-25 12:18N 37°49' W 122°25'0 0.0
2015-Jun-25 11:33N 37°49' W 122°25'0 0.0
2015-Jun-25 10:33N 37°49' W 122°25'0 0.0
2015-Jun-25 09:30N 37°49' W 122°25'0 0.0
2015-Jun-25 08:24N 37°49' W 122°25'0 0.0
2015-Jun-25 07:30N 37°49' W 122°25'0 0.0
2015-Jun-25 06:33N 37°49' W 122°25'0 0.0
2015-Jun-25 05:30N 37°49' W 122°25'0 0.0
2015-Jun-25 04:24N 37°49' W 122°25'0 0.0
2015-Jun-25 03:21N 37°49' W 122°25'2 2.5
2015-Jun-25 02:33N 37°50' W 122°26'2 2.0
2015-Jun-25 01:33N 37°49' W 122°24'0 0.3
2015-Jun-25 00:33N 37°49' W 122°25'1 1.2
2015-Jun-24 23:33N 37°50' W 122°25'1 1.2
2015-Jun-24 22:33N 37°49' W 122°25'0 0.0
2015-Jun-24 21:33N 37°49' W 122°25'0 0.0
2015-Jun-24 20:33N 37°49' W 122°25'2 2.3
2015-Jun-24 19:33N 37°49' W 122°28'2 2.2
2015-Jun-24 18:33N 37°49' W 122°25'1 0.6
2015-Jun-24 17:33N 37°49' W 122°25'0 0.0
2015-Jun-24 16:30N 37°49' W 122°25'0 0.0
2015-Jun-24 15:30N 37°49' W 122°25'0 0.0
2015-Jun-24 14:30N 37°49' W 122°25'0 0.0
2015-Jun-24 13:03N 37°49' W 122°25'0 0.0
2015-Jun-24 12:24N 37°49' W 122°25'0 0.0
2015-Jun-24 11:30N 37°49' W 122°25'0 0.0
2015-Jun-24 10:30N 37°49' W 122°25'0 0.0
2015-Jun-24 09:30N 37°49' W 122°25'0 0.0
2015-Jun-24 08:30N 37°49' W 122°25'0 0.0
2015-Jun-24 07:27N 37°49' W 122°25'0 0.0
2015-Jun-24 06:30N 37°49' W 122°25'0 0.0
2015-Jun-24 05:33N 37°49' W 122°25'0 0.0
2015-Jun-24 04:30N 37°49' W 122°25'0 0.0
2015-Jun-24 03:27N 37°49' W 122°25'2 2.3
2015-Jun-24 02:33N 37°50' W 122°27'2 2.3
2015-Jun-24 01:33N 37°49' W 122°24'0 0.4
2015-Jun-24 00:33N 37°49' W 122°25'1 1.2
2015-Jun-23 23:33N 37°50' W 122°25'1 1.2
2015-Jun-23 22:33N 37°49' W 122°25'0 0.0
2015-Jun-23 21:33N 37°49' W 122°25'0 0.0
2015-Jun-23 20:33N 37°49' W 122°25'2 2.0
2015-Jun-23 19:32N 37°49' W 122°27'2 4.7
2015-Jun-23 19:06N 37°49' W 122°25'2 0.1
2015-Jun-22 19:33N 37°49' W 122°28'3 2.7
2015-Jun-22 18:33N 37°49' W 122°24'0 0.5
2015-Jun-22 17:31N 37°49' W 122°25'0 0.0
2015-Jun-22 01:30N 37°49' W 122°25'0 0.1
2015-Jun-22 00:33N 37°49' W 122°25'4 3.5
2015-Jun-21 23:30N 37°52' W 122°26'1 1.3
2015-Jun-21 22:33N 37°51' W 122°27'1 1.0
2015-Jun-21 21:33N 37°50' W 122°26'2 1.9
2015-Jun-21 20:33N 37°49' W 122°25'4 3.9
2015-Jun-21 19:33N 37°52' W 122°27'4 3.9
2015-Jun-21 18:33N 37°49' W 122°25'4 4.3
2015-Jun-21 17:33N 37°52' W 122°27'4 4.3
2015-Jun-21 16:33N 37°49' W 122°25'0 0.0
2015-Jun-21 15:34N 37°49' W 122°25'  
Track history (hours):
 
Tides and Currents Weather Stations Pressure Air Temp Water Temp Dewpoint Dewpoint Depression Visibility Wind Speed Wind Dir Waves Ship Positions

Harbor Emperor

Owner: BLUE & GOLD FLEET, SAN FRANCISCO, CA. More information available from US FCC via Universal Licensing System and Coast Guard Vessel Documentation Center.

Last reported at 2015-Jul-01 02:33 UTC. Time now 2015-Jul-01 16:58 UTC.
Position N 37°50' W 122°27'.

Length 31 m.

Type: Passenger vessel. MMSI: 366985270.

Date/timePositionNaut miles runAvg speedWind from/ knotsBaromVisibWave heightAir tempDewpointWater temp
2015-Jul-01 02:33N 37°50' W 122°27'2 2.4
2015-Jul-01 01:33N 37°49' W 122°24'0 0.4
2015-Jul-01 00:34N 37°49' W 122°25'1 1.0
2015-Jun-30 23:33N 37°49' W 122°25'1 1.0
2015-Jun-30 22:33N 37°49' W 122°25'0 0.1
2015-Jun-30 21:34N 37°49' W 122°25'0 0.1
2015-Jun-30 20:34N 37°49' W 122°25'2 2.3
2015-Jun-30 19:34N 37°49' W 122°28'3 2.5
2015-Jun-30 18:33N 37°49' W 122°24'0 0.4
2015-Jun-30 17:33N 37°49' W 122°25'0 0.0
2015-Jun-30 16:29N 37°49' W 122°25'0 0.0
2015-Jun-30 15:29N 37°49' W 122°25'0 0.0
2015-Jun-30 14:32N 37°49' W 122°25'0 0.0
2015-Jun-30 13:32N 37°49' W 122°25'0 0.0
2015-Jun-30 12:32N 37°49' W 122°25'0 0.0
2015-Jun-30 11:32N 37°49' W 122°25'0 0.0
2015-Jun-30 10:32N 37°49' W 122°25'0 0.0
2015-Jun-30 09:29N 37°49' W 122°25'0 0.0
2015-Jun-30 08:32N 37°49' W 122°25'0 0.0
2015-Jun-30 07:29N 37°49' W 122°25'0 0.0
2015-Jun-30 06:32N 37°49' W 122°25'0 0.0
2015-Jun-30 05:32N 37°49' W 122°25'0 0.0
2015-Jun-30 04:29N 37°49' W 122°25'0 0.0
2015-Jun-30 03:29N 37°49' W 122°25'2 1.9
2015-Jun-30 02:33N 37°50' W 122°26'2 1.8
2015-Jun-30 01:34N 37°49' W 122°24'0 0.3
2015-Jun-30 00:33N 37°49' W 122°25'1 1.1
2015-Jun-29 23:33N 37°49' W 122°25'1 1.1
2015-Jun-29 22:33N 37°49' W 122°25'0 0.1
2015-Jun-29 21:33N 37°49' W 122°25'0 0.1
2015-Jun-29 20:33N 37°49' W 122°25'2 2.3
2015-Jun-29 19:33N 37°49' W 122°28'2 2.4
2015-Jun-29 18:33N 37°49' W 122°24'0 0.4
2015-Jun-29 17:33N 37°49' W 122°25'0 0.0
2015-Jun-29 01:27N 37°49' W 122°25'0 0.1
2015-Jun-29 00:33N 37°49' W 122°25'4 3.8
2015-Jun-28 23:33N 37°52' W 122°26'2 1.9
2015-Jun-28 22:33N 37°50' W 122°26'0 0.2
2015-Jun-28 21:33N 37°50' W 122°26'2 2.0
2015-Jun-28 20:33N 37°49' W 122°25'4 4.3
2015-Jun-28 19:34N 37°52' W 122°27'4 4.3
2015-Jun-28 18:33N 37°49' W 122°25'4 3.9
2015-Jun-28 17:33N 37°52' W 122°27'4 3.8
2015-Jun-28 16:34N 37°49' W 122°25'0 0.1
2015-Jun-28 15:33N 37°49' W 122°25'0 0.0
2015-Jun-28 14:33N 37°49' W 122°25'0 0.0
2015-Jun-28 13:33N 37°49' W 122°25'0 0.0
2015-Jun-28 12:33N 37°49' W 122°25'0 0.0
2015-Jun-28 11:33N 37°49' W 122°25'0 0.0
2015-Jun-28 10:33N 37°49' W 122°25'0 0.0
2015-Jun-28 09:33N 37°49' W 122°25'0 0.0
2015-Jun-28 08:33N 37°49' W 122°25'0 0.0
2015-Jun-28 07:33N 37°49' W 122°25'0 0.0
2015-Jun-28 06:33N 37°49' W 122°25'0 0.0
2015-Jun-28 05:33N 37°49' W 122°25'0 0.0
2015-Jun-28 04:33N 37°49' W 122°25'3 2.8
2015-Jun-28 03:33N 37°51' W 122°27'2 1.7
2015-Jun-28 02:33N 37°49' W 122°26'3 2.8
2015-Jun-28 01:34N 37°52' W 122°27'4 4.0
2015-Jun-28 00:33N 37°49' W 122°25'4 3.7
2015-Jun-27 23:33N 37°52' W 122°26'1 1.3
2015-Jun-27 22:34N 37°51' W 122°27'1 0.9
2015-Jun-27 21:33N 37°50' W 122°26'2 2.0
2015-Jun-27 20:33N 37°49' W 122°25'4 3.9
2015-Jun-27 19:33N 37°52' W 122°27'4 4.4
2015-Jun-27 18:33N 37°48' W 122°24'4 4.2
2015-Jun-27 17:34N 37°52' W 122°26'4 3.8
2015-Jun-27 16:34N 37°49' W 122°25'0 0.1
2015-Jun-27 15:33N 37°49' W 122°25'0 0.0
2015-Jun-27 14:34N 37°49' W 122°25'0 0.0
2015-Jun-27 13:34N 37°49' W 122°25'0 0.0
2015-Jun-27 12:34N 37°49' W 122°25'0 0.0
2015-Jun-27 11:33N 37°49' W 122°25'0 0.0
2015-Jun-27 10:34N 37°49' W 122°25'0 0.0
2015-Jun-27 09:33N 37°49' W 122°25'0 0.0
2015-Jun-27 08:33N 37°49' W 122°25'0 0.0
2015-Jun-27 07:34N 37°49' W 122°25'0 0.0
2015-Jun-27 06:33N 37°49' W 122°25'0 0.0
2015-Jun-27 05:34N 37°49' W 122°25'0 0.0
2015-Jun-27 04:33N 37°49' W 122°25'0 0.0
2015-Jun-27 03:33N 37°49' W 122°25'3 2.9
2015-Jun-27 02:33N 37°49' W 122°28'3 3.0
2015-Jun-27 01:33N 37°49' W 122°24'1 0.7
2015-Jun-27 00:33N 37°49' W 122°25'1 1.0
2015-Jun-26 23:33N 37°49' W 122°25'1 1.0
2015-Jun-26 22:33N 37°49' W 122°25'0 0.1
2015-Jun-26 21:34N 37°49' W 122°25'0 0.1
2015-Jun-26 20:33N 37°49' W 122°25'2 2.5
2015-Jun-26 19:33N 37°49' W 122°28'2 2.3
2015-Jun-26 18:33N 37°49' W 122°25'1 0.8
2015-Jun-26 17:28N 37°49' W 122°25'0 0.0
2015-Jun-26 16:33N 37°49' W 122°25'0 0.0
2015-Jun-26 15:33N 37°49' W 122°25'0 0.0
2015-Jun-26 14:33N 37°49' W 122°25'0 0.0
2015-Jun-26 13:15N 37°49' W 122°25'0 0.0
2015-Jun-26 12:30N 37°49' W 122°25'0 0.0
2015-Jun-26 11:33N 37°49' W 122°25'0 0.0
2015-Jun-26 10:33N 37°49' W 122°25'0 0.0
2015-Jun-26 09:33N 37°49' W 122°25'0 0.0
2015-Jun-26 08:33N 37°49' W 122°25'0 0.0
2015-Jun-26 07:33N 37°49' W 122°25'0 0.0
2015-Jun-26 06:33N 37°49' W 122°25'0 0.0
2015-Jun-26 05:33N 37°49' W 122°25'0 0.0
2015-Jun-26 04:33N 37°49' W 122°25'0 0.0
2015-Jun-26 03:33N 37°49' W 122°25'2 2.1
2015-Jun-26 02:34N 37°50' W 122°27'2 2.1
2015-Jun-26 01:33N 37°49' W 122°24'0 0.4
2015-Jun-26 00:33N 37°49' W 122°25'1 1.3
2015-Jun-25 23:33N 37°50' W 122°26'1 1.3
2015-Jun-25 22:33N 37°49' W 122°25'0 0.0
2015-Jun-25 21:33N 37°49' W 122°25'0 0.0
2015-Jun-25 20:33N 37°49' W 122°25'3 2.6
2015-Jun-25 19:33N 37°49' W 122°28'3 2.6
2015-Jun-25 18:33N 37°49' W 122°25'0 0.5
2015-Jun-25 17:33N 37°49' W 122°25'0 0.0
2015-Jun-25 16:33N 37°49' W 122°25'0 0.0
2015-Jun-25 15:24N 37°49' W 122°25'0 0.0
2015-Jun-25 14:33N 37°49' W 122°25'0 0.0
2015-Jun-25 13:33N 37°49' W 122°25'0 0.0
2015-Jun-25 12:18N 37°49' W 122°25'0 0.0
2015-Jun-25 11:33N 37°49' W 122°25'0 0.0
2015-Jun-25 10:33N 37°49' W 122°25'0 0.0
2015-Jun-25 09:30N 37°49' W 122°25'0 0.0
2015-Jun-25 08:24N 37°49' W 122°25'0 0.0
2015-Jun-25 07:30N 37°49' W 122°25'0 0.0
2015-Jun-25 06:33N 37°49' W 122°25'0 0.0
2015-Jun-25 05:30N 37°49' W 122°25'0 0.0
2015-Jun-25 04:24N 37°49' W 122°25'0 0.0
2015-Jun-25 03:21N 37°49' W 122°25'2 2.5
2015-Jun-25 02:33N 37°50' W 122°26'2 2.0
2015-Jun-25 01:33N 37°49' W 122°24'0 0.3
2015-Jun-25 00:33N 37°49' W 122°25'1 1.2
2015-Jun-24 23:33N 37°50' W 122°25'1 1.2
2015-Jun-24 22:33N 37°49' W 122°25'0 0.0
2015-Jun-24 21:33N 37°49' W 122°25'0 0.0
2015-Jun-24 20:33N 37°49' W 122°25'2 2.3
2015-Jun-24 19:33N 37°49' W 122°28'2 2.2
2015-Jun-24 18:33N 37°49' W 122°25'1 0.6
2015-Jun-24 17:33N 37°49' W 122°25'0 0.0
2015-Jun-24 16:30N 37°49' W 122°25'0 0.0
2015-Jun-24 15:30N 37°49' W 122°25'0 0.0
2015-Jun-24 14:30N 37°49' W 122°25'0 0.0
2015-Jun-24 13:03N 37°49' W 122°25'0 0.0
2015-Jun-24 12:24N 37°49' W 122°25'0 0.0
2015-Jun-24 11:30N 37°49' W 122°25'0 0.0
2015-Jun-24 10:30N 37°49' W 122°25'0 0.0
2015-Jun-24 09:30N 37°49' W 122°25'0 0.0
2015-Jun-24 08:30N 37°49' W 122°25'0 0.0
2015-Jun-24 07:27N 37°49' W 122°25'0 0.0
2015-Jun-24 06:30N 37°49' W 122°25'0 0.0
2015-Jun-24 05:33N 37°49' W 122°25'0 0.0
2015-Jun-24 04:30N 37°49' W 122°25'0 0.0
2015-Jun-24 03:27N 37°49' W 122°25'2 2.3
2015-Jun-24 02:33N 37°50' W 122°27'2 2.3
2015-Jun-24 01:33N 37°49' W 122°24'0 0.4
2015-Jun-24 00:33N 37°49' W 122°25'1 1.2
2015-Jun-23 23:33N 37°50' W 122°25'1 1.2
2015-Jun-23 22:33N 37°49' W 122°25'0 0.0
2015-Jun-23 21:33N 37°49' W 122°25'0 0.0
2015-Jun-23 20:33N 37°49' W 122°25'2 2.0
2015-Jun-23 19:32N 37°49' W 122°27'2 4.7
2015-Jun-23 19:06N 37°49' W 122°25'2 0.1
2015-Jun-22 19:33N 37°49' W 122°28'3 2.7
2015-Jun-22 18:33N 37°49' W 122°24'0 0.5
2015-Jun-22 17:31N 37°49' W 122°25'0 0.0
2015-Jun-22 01:30N 37°49' W 122°25'0 0.1
2015-Jun-22 00:33N 37°49' W 122°25'4 3.5
2015-Jun-21 23:30N 37°52' W 122°26'1 1.3
2015-Jun-21 22:33N 37°51' W 122°27'1 1.0
2015-Jun-21 21:33N 37°50' W 122°26'2 1.9
2015-Jun-21 20:33N 37°49' W 122°25'4 3.9
2015-Jun-21 19:33N 37°52' W 122°27'4 3.9
2015-Jun-21 18:33N 37°49' W 122°25'4 4.3
2015-Jun-21 17:33N 37°52' W 122°27'4 4.3
2015-Jun-21 16:33N 37°49' W 122°25'0 0.0
2015-Jun-21 15:34N 37°49' W 122°25'  

Dump ship's entire track history